createdAt,value
2023-01-19T00:00:51.784Z,7.50
2023-01-19T00:03:18.577Z,8.32
2023-01-19T00:05:45.569Z,6.93
2023-01-19T00:08:15.994Z,7.85
2023-01-19T00:10:44.909Z,8.45
2023-01-19T00:13:11.658Z,8.07
2023-01-19T00:15:38.390Z,7.65
2023-01-19T00:18:05.646Z,8.32
2023-01-19T00:20:32.912Z,7.30
2023-01-19T00:23:00.236Z,8.00
2023-01-19T00:25:27.760Z,8.30
2023-01-19T00:27:54.564Z,9.05
2023-01-19T00:30:21.645Z,7.90
2023-01-19T00:32:48.337Z,8.77
2023-01-19T00:35:15.615Z,8.30
2023-01-19T00:37:45.994Z,7.93
2023-01-19T00:40:14.255Z,8.98
2023-01-19T00:42:44.451Z,7.97
2023-01-19T00:45:14.858Z,8.18
2023-01-19T00:47:41.985Z,7.95
2023-01-19T00:50:13.237Z,7.78
2023-01-19T00:52:41.066Z,7.55
2023-01-19T00:55:09.169Z,7.53
2023-01-19T00:57:35.989Z,8.18
2023-01-19T01:00:06.350Z,7.20
2023-01-19T01:02:33.679Z,8.27
2023-01-19T01:05:02.956Z,8.10
2023-01-19T01:07:30.723Z,7.50
2023-01-19T01:09:57.557Z,7.63
2023-01-19T01:12:24.646Z,7.50
2023-01-19T01:14:51.367Z,6.90
2023-01-19T01:17:18.084Z,8.20
2023-01-19T01:19:44.774Z,7.60
2023-01-19T01:22:11.491Z,7.38
2023-01-19T01:24:38.302Z,7.30
2023-01-19T01:27:04.952Z,7.47
2023-01-19T01:29:31.661Z,8.02
2023-01-19T01:31:58.415Z,7.50
2023-01-19T01:34:25.104Z,7.95
2023-01-19T01:36:51.806Z,8.32
2023-01-19T01:39:18.431Z,6.88
2023-01-19T01:41:45.191Z,8.13
2023-01-19T01:44:54.041Z,6.97
2023-01-19T01:47:32.821Z,7.00
2023-01-19T01:50:13.634Z,7.07
2023-01-19T01:53:13.836Z,7.85
2023-01-19T01:55:48.118Z,7.97
2023-01-19T01:58:16.306Z,8.27
2023-01-19T02:01:02.036Z,7.65
2023-01-19T02:03:29.313Z,8.65
2023-01-19T02:06:00.810Z,7.72
2023-01-19T02:09:06.060Z,7.85
2023-01-19T02:11:52.391Z,6.90
2023-01-19T02:14:19.125Z,7.28
2023-01-19T02:16:46.563Z,8.10
2023-01-19T02:19:22.076Z,7.68
2023-01-19T02:21:54.757Z,7.03
2023-01-19T02:24:22.021Z,7.25
2023-01-19T02:26:49.120Z,7.90
2023-01-19T02:29:19.376Z,7.18
2023-01-19T02:31:46.814Z,7.45
2023-01-19T02:34:17.180Z,7.65
2023-01-19T02:36:50.092Z,7.35
2023-01-19T02:39:20.420Z,7.22
2023-01-19T02:41:52.897Z,7.10
2023-01-19T02:44:21.391Z,7.38
2023-01-19T02:46:48.379Z,7.70
2023-01-19T02:49:15.117Z,7.03
2023-01-19T02:51:44.521Z,7.03
2023-01-19T02:56:53.046Z,6.22
2023-01-19T02:59:58.753Z,7.38
2023-01-19T03:02:38.722Z,7.25
2023-01-19T03:05:16.428Z,7.07
2023-01-19T03:08:10.723Z,7.00
2023-01-19T03:11:18.551Z,7.25
2023-01-19T03:13:51.725Z,6.53
2023-01-19T03:16:39.764Z,7.22
2023-01-19T03:19:17.925Z,6.75
2023-01-19T03:21:58.000Z,6.38
2023-01-19T03:24:28.707Z,7.72
2023-01-19T03:27:02.819Z,6.78
2023-01-19T03:29:34.941Z,6.18
2023-01-19T03:32:06.366Z,6.25
2023-01-19T03:34:35.515Z,6.93
2023-01-19T03:37:04.585Z,7.18
2023-01-19T03:39:31.746Z,7.20
2023-01-19T03:42:03.133Z,7.18
2023-01-19T03:44:33.115Z,6.90
2023-01-19T03:47:00.348Z,8.35
2023-01-19T03:49:28.363Z,7.57
2023-01-19T03:51:59.289Z,7.57
2023-01-19T03:54:26.514Z,6.78
2023-01-19T03:56:53.109Z,6.78
2023-01-19T03:59:21.784Z,6.70
2023-01-19T04:01:49.077Z,6.57
2023-01-19T04:04:15.787Z,6.30
2023-01-19T04:06:43.105Z,7.43
2023-01-19T04:09:09.855Z,7.45
2023-01-19T04:11:36.529Z,8.05
2023-01-19T04:14:03.235Z,6.68
2023-01-19T04:16:29.889Z,7.30
2023-01-19T04:18:57.375Z,7.30
2023-01-19T04:21:23.977Z,7.78
2023-01-19T04:23:50.862Z,7.47
2023-01-19T04:26:18.294Z,7.05
2023-01-19T04:28:45.041Z,7.32
2023-01-19T04:31:12.576Z,7.38
2023-01-19T04:33:39.279Z,7.13
2023-01-19T04:36:06.301Z,7.38
2023-01-19T04:38:32.895Z,8.02
2023-01-19T04:40:59.621Z,7.72
2023-01-19T04:43:26.400Z,8.23
2023-01-19T04:45:53.083Z,7.30
2023-01-19T04:48:19.957Z,7.05
2023-01-19T04:50:47.341Z,7.28
2023-01-19T04:53:16.292Z,8.27
2023-01-19T04:55:42.988Z,7.65
2023-01-19T04:58:10.129Z,7.65
2023-01-19T05:00:37.035Z,7.78
2023-01-19T05:03:04.728Z,7.38
2023-01-19T05:05:33.195Z,7.63
2023-01-19T05:08:00.647Z,8.40
2023-01-19T05:10:27.315Z,8.00
2023-01-19T05:12:54.021Z,7.93
2023-01-19T05:15:20.666Z,8.65
2023-01-19T05:17:48.038Z,8.40
2023-01-19T05:20:16.344Z,7.63
2023-01-19T05:22:48.449Z,8.00
2023-01-19T05:25:15.123Z,7.82
2023-01-19T05:27:41.826Z,7.95
2023-01-19T05:30:09.583Z,7.57
2023-01-19T05:32:36.227Z,9.05
2023-01-19T05:35:03.018Z,8.32
2023-01-19T05:37:29.736Z,9.20
2023-01-19T05:39:56.473Z,8.52
2023-01-19T05:42:23.107Z,8.40
2023-01-19T05:44:49.791Z,9.38
2023-01-19T05:47:16.514Z,9.40
2023-01-19T05:49:43.217Z,8.70
2023-01-19T05:52:09.963Z,9.65
2023-01-19T05:54:36.748Z,8.60
2023-01-19T05:57:04.566Z,9.27
2023-01-19T05:59:31.308Z,8.48
2023-01-19T06:01:59.923Z,10.07
2023-01-19T06:04:27.045Z,8.68
2023-01-19T06:06:53.701Z,7.93
2023-01-19T06:09:20.490Z,8.95
2023-01-19T06:11:47.475Z,8.93
2023-01-19T06:14:14.214Z,9.10
2023-01-19T06:16:41.196Z,9.55
2023-01-19T06:19:07.934Z,8.20
2023-01-19T06:21:34.767Z,8.93
2023-01-19T06:24:01.830Z,9.27
2023-01-19T06:26:28.570Z,8.07
2023-01-19T06:28:55.677Z,8.68
2023-01-19T06:31:22.401Z,8.48
2023-01-19T06:33:49.173Z,9.02
2023-01-19T06:36:15.929Z,10.07
2023-01-19T06:38:42.561Z,9.20
2023-01-19T06:41:09.189Z,9.88
2023-01-19T06:43:35.919Z,9.80
2023-01-19T06:46:03.528Z,10.25
2023-01-19T06:48:30.212Z,9.80
2023-01-19T06:50:58.751Z,10.75
2023-01-19T06:53:28.087Z,10.65
2023-01-19T06:56:02.444Z,10.40
2023-01-19T06:58:30.222Z,9.07
2023-01-19T07:01:04.778Z,9.57
2023-01-19T07:03:32.182Z,10.60
2023-01-19T07:06:02.345Z,10.10
2023-01-19T07:08:30.046Z,11.15
2023-01-19T07:11:26.317Z,11.63
2023-01-19T07:13:51.720Z,11.57
2023-01-19T07:16:18.825Z,10.43
2023-01-19T07:18:48.720Z,10.93
2023-01-19T07:21:15.589Z,10.90
2023-01-19T07:23:43.408Z,11.50
2023-01-19T07:26:10.897Z,11.32
2023-01-19T07:28:37.516Z,10.57
2023-01-19T07:31:04.502Z,11.35
2023-01-19T07:33:31.251Z,11.40
2023-01-19T07:35:58.417Z,10.05
2023-01-19T07:38:25.338Z,10.75
2023-01-19T07:40:51.977Z,10.63
2023-01-19T07:43:18.563Z,11.27
2023-01-19T07:45:45.661Z,12.25
2023-01-19T07:48:12.330Z,10.55
2023-01-19T07:50:39.042Z,10.05
2023-01-19T07:53:07.787Z,9.93
2023-01-19T07:55:34.881Z,10.27
2023-01-19T07:58:01.676Z,10.98
2023-01-19T08:00:28.420Z,9.85
2023-01-19T08:03:00.627Z,10.88
2023-01-19T08:05:29.262Z,10.95
2023-01-19T08:07:57.668Z,9.23
2023-01-19T08:10:29.191Z,9.67
2023-01-19T08:12:57.737Z,10.65
2023-01-19T08:15:25.304Z,9.50
2023-01-19T08:18:02.882Z,10.75
2023-01-19T08:20:30.055Z,9.43
2023-01-19T08:23:00.454Z,10.05
2023-01-19T08:25:33.394Z,10.73
2023-01-19T08:28:00.394Z,10.82
2023-01-19T08:30:27.854Z,11.48
2023-01-19T08:32:58.273Z,10.27
2023-01-19T08:35:25.140Z,9.40
2023-01-19T08:37:51.805Z,10.00
2023-01-19T08:40:18.535Z,9.98
2023-01-19T08:42:45.560Z,9.73
2023-01-19T08:45:12.336Z,10.05
2023-01-19T08:47:39.115Z,12.57
2023-01-19T08:50:06.355Z,9.30
2023-01-19T08:52:33.177Z,9.75
2023-01-19T08:55:00.780Z,10.93
2023-01-19T08:57:28.096Z,10.48
2023-01-19T08:59:54.718Z,9.75
2023-01-19T09:02:21.574Z,10.95
2023-01-19T09:04:49.023Z,9.82
2023-01-19T09:07:15.757Z,9.77
2023-01-19T09:09:43.553Z,10.60
2023-01-19T09:12:10.230Z,9.63
2023-01-19T09:14:36.863Z,10.05
2023-01-19T09:17:04.353Z,9.60
2023-01-19T09:19:30.998Z,9.77
2023-01-19T09:21:59.505Z,9.80
2023-01-19T09:24:26.465Z,8.70
2023-01-19T09:26:53.105Z,9.15
2023-01-19T09:29:19.848Z,9.10
2023-01-19T09:31:46.475Z,9.15
2023-01-19T09:34:13.189Z,9.82
2023-01-19T09:36:40.024Z,10.43
2023-01-19T09:39:06.849Z,8.85
2023-01-19T09:41:36.173Z,9.23
2023-01-19T09:46:43.207Z,8.32
2023-01-19T09:49:21.649Z,9.55
2023-01-19T09:51:50.607Z,9.20
2023-01-19T09:54:27.865Z,8.50
2023-01-19T09:56:54.489Z,9.05
2023-01-19T09:59:32.471Z,9.40
2023-01-19T10:02:19.505Z,8.88
2023-01-19T10:04:58.341Z,9.05
2023-01-19T10:07:44.282Z,9.02
2023-01-19T10:10:27.089Z,9.25
2023-01-19T10:13:04.316Z,9.13
2023-01-19T10:16:08.789Z,8.75
2023-01-19T10:18:47.853Z,10.15
2023-01-19T10:21:14.452Z,9.93
2023-01-19T10:23:46.315Z,9.75
2023-01-19T10:26:20.462Z,9.80
2023-01-19T10:28:49.076Z,8.95
2023-01-19T10:31:19.224Z,7.85
2023-01-19T10:33:46.038Z,10.20
2023-01-19T10:36:24.285Z,10.23
2023-01-19T10:38:52.120Z,9.63
2023-01-19T10:41:28.469Z,9.65
2023-01-19T10:44:05.990Z,9.02
2023-01-19T10:46:46.633Z,8.95
2023-01-19T10:49:36.969Z,9.23
2023-01-19T10:52:06.499Z,8.60
2023-01-19T10:54:34.795Z,8.88
2023-01-19T10:57:04.421Z,9.38
2023-01-19T10:59:44.864Z,9.88
2023-01-19T11:02:29.737Z,9.02
2023-01-19T11:05:02.506Z,9.05
2023-01-19T11:07:33.014Z,9.70
2023-01-19T11:10:20.835Z,9.02
2023-01-19T11:13:13.207Z,9.52
2023-01-19T11:15:55.002Z,10.50
2023-01-19T11:18:24.616Z,10.30
2023-01-19T11:20:53.839Z,9.25
2023-01-19T11:23:27.331Z,8.77
2023-01-19T11:26:01.567Z,8.90
2023-01-19T11:28:44.773Z,9.38
2023-01-19T11:31:11.672Z,8.95
2023-01-19T11:33:45.305Z,9.70
2023-01-19T11:36:30.493Z,11.05
2023-01-19T11:39:21.529Z,9.57
2023-01-19T11:41:55.064Z,10.88
2023-01-19T11:44:27.915Z,10.68
2023-01-19T11:46:59.529Z,11.18
2023-01-19T11:49:38.951Z,9.85
2023-01-19T11:55:00.987Z,10.57
2023-01-19T11:57:27.693Z,11.60
2023-01-19T11:59:55.040Z,13.05
2023-01-19T12:02:32.271Z,12.50
2023-01-19T12:05:05.607Z,12.38
2023-01-19T12:07:36.222Z,12.85
2023-01-19T12:10:16.928Z,12.23
2023-01-19T12:12:44.079Z,11.40
2023-01-19T12:15:42.506Z,12.43
2023-01-19T12:18:35.278Z,12.17
2023-01-19T12:21:03.964Z,12.52
2023-01-19T12:23:36.951Z,13.27
2023-01-19T12:26:30.864Z,12.95
2023-01-19T12:29:03.794Z,11.50
2023-01-19T12:31:30.559Z,10.38
2023-01-19T12:34:27.209Z,12.07
2023-01-19T12:36:57.987Z,10.73
2023-01-19T12:39:26.048Z,11.68
2023-01-19T12:42:18.475Z,11.20
2023-01-19T12:44:47.999Z,11.70
2023-01-19T12:47:14.521Z,12.70
2023-01-19T12:49:55.438Z,10.77
2023-01-19T12:52:30.906Z,10.90
2023-01-19T12:55:23.239Z,11.18
2023-01-19T12:58:15.653Z,11.20
2023-01-19T13:00:43.890Z,10.52
2023-01-19T13:03:16.417Z,11.25
2023-01-19T13:05:43.095Z,10.57
2023-01-19T13:08:09.665Z,10.43
2023-01-19T13:11:10.189Z,9.43
2023-01-19T13:13:59.625Z,9.65
2023-01-19T13:16:27.531Z,9.18
2023-01-19T13:19:06.489Z,9.35
2023-01-19T13:21:44.656Z,8.90
2023-01-19T13:24:15.786Z,9.17
2023-01-19T13:26:51.573Z,9.05
2023-01-19T13:29:40.430Z,9.55
2023-01-19T13:32:16.055Z,11.20
2023-01-19T13:34:45.949Z,10.82
2023-01-19T13:37:19.507Z,9.70
2023-01-19T13:39:50.056Z,10.20
2023-01-19T13:42:34.767Z,10.27
2023-01-19T13:45:07.135Z,9.50
2023-01-19T13:47:44.304Z,8.63
2023-01-19T13:50:20.596Z,9.68
2023-01-19T13:52:48.933Z,9.18
2023-01-19T13:55:16.426Z,9.57
2023-01-19T13:57:47.913Z,10.63
2023-01-19T14:00:26.466Z,9.98
2023-01-19T14:03:02.655Z,11.07
2023-01-19T14:05:34.770Z,10.10
2023-01-19T14:08:11.138Z,10.18
2023-01-19T14:11:02.340Z,10.07
2023-01-19T14:13:34.442Z,9.73
2023-01-19T14:16:23.765Z,10.32
2023-01-19T14:21:25.775Z,8.98
2023-01-19T14:23:55.162Z,8.38
2023-01-19T14:29:45.685Z,9.82
2023-01-19T14:32:14.960Z,8.52
2023-01-19T14:34:44.935Z,11.77
2023-01-19T14:37:30.444Z,10.20
2023-01-19T14:40:12.152Z,9.68
2023-01-19T14:42:54.735Z,10.60
2023-01-19T14:45:46.870Z,10.13
2023-01-19T14:48:18.533Z,11.13
2023-01-19T14:51:02.115Z,11.05
2023-01-19T14:53:37.183Z,10.88
2023-01-19T14:56:06.037Z,10.10
2023-01-19T14:58:34.681Z,11.18
2023-01-19T15:01:02.150Z,10.27
2023-01-19T15:03:44.164Z,9.13
2023-01-19T15:06:17.294Z,8.77
2023-01-19T15:08:45.075Z,7.70
2023-01-19T15:11:26.414Z,7.65
2023-01-19T15:13:53.249Z,8.13
2023-01-19T15:16:20.385Z,9.10
2023-01-19T15:18:47.109Z,9.07
2023-01-19T15:21:26.831Z,9.13
2023-01-19T15:23:54.699Z,8.48
2023-01-19T15:26:26.357Z,7.80
2023-01-19T15:28:53.407Z,9.15
2023-01-19T15:31:23.568Z,7.47
2023-01-19T15:33:50.559Z,7.78
2023-01-19T15:36:22.243Z,6.93
2023-01-19T15:38:51.108Z,8.05
2023-01-19T15:41:24.916Z,9.70
2023-01-19T15:43:52.054Z,7.55
2023-01-19T15:46:20.857Z,9.57
2023-01-19T15:48:48.703Z,7.38
2023-01-19T15:51:17.704Z,7.22
2023-01-19T15:53:45.000Z,7.28
2023-01-19T15:56:19.485Z,6.78
2023-01-19T15:58:46.265Z,7.88
2023-01-19T16:01:18.391Z,8.02
2023-01-19T16:03:46.189Z,6.97
2023-01-19T16:06:13.686Z,6.40
2023-01-19T16:08:40.446Z,7.07
2023-01-19T16:11:09.485Z,6.65
2023-01-19T16:13:36.825Z,6.88
2023-01-19T16:16:13.764Z,8.85
2023-01-19T16:18:40.456Z,7.90
2023-01-19T16:21:07.140Z,8.57
2023-01-19T16:23:33.780Z,8.30
2023-01-19T16:26:07.915Z,9.88
2023-01-19T16:28:36.215Z,7.63
2023-01-19T16:31:03.581Z,8.25
2023-01-19T16:33:30.487Z,8.50
2023-01-19T16:35:57.153Z,7.78
2023-01-19T16:38:24.055Z,6.88
2023-01-19T16:40:50.727Z,7.35
2023-01-19T16:43:18.612Z,7.72
2023-01-19T16:46:02.906Z,8.23
2023-01-19T16:48:29.718Z,7.80
2023-01-19T16:51:06.741Z,6.63
2023-01-19T16:53:35.351Z,6.78
2023-01-19T16:56:07.265Z,7.03
2023-01-19T16:58:34.819Z,7.43
2023-01-19T17:01:18.373Z,6.88
2023-01-19T17:03:46.568Z,8.52
2023-01-19T17:06:15.475Z,7.45
2023-01-19T17:08:42.091Z,9.38
2023-01-19T17:11:14.291Z,9.57
2023-01-19T17:13:41.207Z,9.10
2023-01-19T17:16:08.367Z,8.55
2023-01-19T17:18:37.878Z,8.85
2023-01-19T17:21:09.485Z,9.68
2023-01-19T17:23:37.580Z,9.18
2023-01-19T17:26:05.090Z,10.38
2023-01-19T17:28:31.748Z,9.00
2023-01-19T17:31:07.783Z,8.85
2023-01-19T17:33:34.989Z,9.45
2023-01-19T17:36:12.485Z,9.38
2023-01-19T17:38:40.249Z,8.90
2023-01-19T17:41:14.099Z,10.27
2023-01-19T17:43:41.023Z,9.75
2023-01-19T17:46:07.811Z,9.15
2023-01-19T17:48:34.465Z,9.20
2023-01-19T17:51:10.170Z,10.18
2023-01-19T17:53:37.991Z,9.25
2023-01-19T17:56:10.661Z,8.48
2023-01-19T17:58:37.505Z,9.15
2023-01-19T18:01:19.895Z,8.45
2023-01-19T18:03:46.885Z,9.65
2023-01-19T18:06:14.169Z,10.43
2023-01-19T18:08:43.214Z,10.15
2023-01-19T18:11:10.748Z,9.35
2023-01-19T18:13:38.070Z,10.18
2023-01-19T18:16:10.170Z,10.80
2023-01-19T18:18:37.140Z,11.05
2023-01-19T18:21:08.929Z,9.88
2023-01-19T18:23:36.599Z,11.80
2023-01-19T18:26:11.814Z,9.55
2023-01-19T18:28:38.799Z,9.88
2023-01-19T18:31:17.653Z,12.20
2023-01-19T18:33:47.447Z,10.75
2023-01-19T18:36:14.872Z,10.65
2023-01-19T18:38:42.133Z,11.23
2023-01-19T18:41:12.428Z,12.48
2023-01-19T18:43:39.776Z,11.90
2023-01-19T18:46:07.244Z,11.30
2023-01-19T18:48:34.615Z,12.98
2023-01-19T18:51:06.557Z,9.88
2023-01-19T18:53:33.447Z,10.95
2023-01-19T18:56:04.953Z,11.57
2023-01-19T18:58:32.810Z,12.25
2023-01-19T19:01:01.132Z,10.30
2023-01-19T19:03:28.567Z,10.50
2023-01-19T19:05:55.828Z,9.82
2023-01-19T19:08:22.678Z,9.00
2023-01-19T19:11:14.456Z,11.07
2023-01-19T19:13:45.911Z,11.00
2023-01-19T19:16:13.455Z,10.57
2023-01-19T19:18:40.404Z,10.52
2023-01-19T19:21:09.801Z,11.75
2023-01-19T19:26:09.733Z,10.38
2023-01-19T19:28:38.249Z,10.43
2023-01-19T19:31:06.860Z,10.77
2023-01-19T19:33:34.408Z,10.88
2023-01-19T19:36:01.229Z,11.75
2023-01-19T19:38:28.790Z,12.25
2023-01-19T19:40:57.344Z,10.98
2023-01-19T19:43:24.901Z,10.17
2023-01-19T19:46:03.550Z,9.50
2023-01-19T19:48:46.246Z,9.02
2023-01-19T19:51:22.768Z,10.18
2023-01-19T19:53:51.861Z,10.30
2023-01-19T19:56:23.872Z,11.65
2023-01-19T19:58:52.160Z,10.48
2023-01-19T20:01:24.020Z,11.20
2023-01-19T20:03:52.088Z,11.98
2023-01-19T20:06:21.848Z,12.07
2023-01-19T20:08:50.729Z,11.73
2023-01-19T20:11:23.569Z,12.02
2023-01-19T20:13:50.931Z,11.05
2023-01-19T20:16:20.890Z,10.68
2023-01-19T20:18:51.533Z,10.10
2023-01-19T20:21:26.034Z,11.57
2023-01-19T20:23:53.832Z,10.32
2023-01-19T20:26:25.287Z,10.25
2023-01-19T20:28:52.377Z,9.88
2023-01-19T20:31:24.354Z,10.65
2023-01-19T20:33:53.305Z,10.75
2023-01-19T20:36:22.135Z,10.40
2023-01-19T20:38:48.894Z,11.25
2023-01-19T20:41:15.775Z,11.48
2023-01-19T20:43:42.580Z,11.27
2023-01-19T20:46:09.705Z,11.18
2023-01-19T20:48:36.894Z,11.85
2023-01-19T20:51:06.980Z,12.45
2023-01-19T20:53:34.368Z,12.15
2023-01-19T20:56:06.237Z,11.93
2023-01-19T20:58:34.041Z,11.73
2023-01-19T21:01:00.891Z,11.25
2023-01-19T21:03:29.642Z,10.43
2023-01-19T21:05:59.405Z,11.95
2023-01-19T21:08:26.412Z,9.88
2023-01-19T21:10:57.049Z,11.70
2023-01-19T21:13:24.147Z,12.18
2023-01-19T21:15:50.965Z,12.60
2023-01-19T21:18:17.773Z,11.65
2023-01-19T21:20:45.238Z,12.40
2023-01-19T21:23:12.038Z,10.98
2023-01-19T21:25:38.827Z,11.32
2023-01-19T21:28:05.996Z,10.98
2023-01-19T21:30:32.758Z,11.02
2023-01-19T21:32:59.616Z,11.10
2023-01-19T21:35:26.321Z,10.73
2023-01-19T21:37:53.155Z,13.20
2023-01-19T21:40:20.084Z,14.50
2023-01-19T21:42:46.945Z,12.13
2023-01-19T21:45:14.107Z,12.70
2023-01-19T21:47:41.285Z,13.02
2023-01-19T21:50:08.709Z,15.65
2023-01-19T21:52:35.556Z,15.95
2023-01-19T21:55:02.413Z,14.95
2023-01-19T21:57:29.149Z,15.23
2023-01-19T21:59:55.949Z,12.68
2023-01-19T22:02:37.373Z,14.35
2023-01-19T22:05:06.701Z,13.32
2023-01-19T22:07:33.501Z,14.47
2023-01-19T22:10:00.343Z,11.68
2023-01-19T22:12:27.192Z,14.90
2023-01-19T22:14:54.486Z,12.98
2023-01-19T22:17:21.298Z,12.05
2023-01-19T22:20:08.999Z,12.25
2023-01-19T22:22:35.849Z,12.30
2023-01-19T22:25:03.248Z,12.55
2023-01-19T22:27:33.349Z,12.40
2023-01-19T22:30:00.240Z,13.07
2023-01-19T22:32:27.280Z,12.30
2023-01-19T22:34:54.253Z,12.20
2023-01-19T22:37:21.516Z,11.40
2023-01-19T22:39:48.526Z,12.85
2023-01-19T22:42:15.301Z,10.63
2023-01-19T22:44:42.587Z,11.68
2023-01-19T22:47:12.557Z,11.82
2023-01-19T22:49:42.413Z,11.25
2023-01-19T22:52:09.533Z,10.93
2023-01-19T22:54:36.557Z,10.38
2023-01-19T22:57:03.616Z,10.27
2023-01-19T22:59:33.548Z,10.63
2023-01-19T23:02:00.309Z,11.00
2023-01-19T23:04:27.089Z,9.98
2023-01-19T23:06:53.831Z,11.15
2023-01-19T23:09:20.634Z,11.18
2023-01-19T23:11:50.504Z,11.18
2023-01-19T23:14:20.344Z,11.23
2023-01-19T23:16:47.407Z,11.63
2023-01-19T23:19:17.271Z,11.95
2023-01-19T23:21:45.023Z,11.48
2023-01-19T23:24:11.779Z,10.48
2023-01-19T23:26:38.959Z,10.38
2023-01-19T23:29:08.608Z,11.43
2023-01-19T23:31:37.738Z,11.27
2023-01-19T23:34:07.821Z,12.90
2023-01-19T23:36:36.521Z,12.52
2023-01-19T23:39:06.899Z,12.50
2023-01-19T23:41:36.773Z,13.52
2023-01-19T23:44:03.862Z,12.85
2023-01-19T23:46:31.334Z,12.50
2023-01-19T23:48:58.109Z,12.88
2023-01-19T23:51:27.504Z,13.38
2023-01-19T23:56:23.336Z,15.38
2023-01-19T23:58:54.751Z,13.95
